DLH7305 EDDH-EPWA
Flight info
| Callsign | DLH7305 |
|---|---|
| Flight time | 1h 15m |
| Altitude | 35000 |
| Route | RAMAR6G RAMAR DCT PABMI DCT RADEL DCT ALUKA DCT DENKO P851 BIMPA |
| Aircraft | A320/M-SDE3FGHIRWY/LB1 |
Departure
| Time | 2026-04-24 13:30 |
|---|---|
| Airport | Hamburg Helmut Schmidt Airport (EDDH) |
Arrival
| Time | 2026-04-24 14:46 |
|---|---|
| Airport | Warsaw Chopin Airport (EPWA) |
| Time | Latitude | Longitude | Altitude | Speed | Heading |
|---|---|---|---|---|---|
| 2026-04-24 12:52 | 53.63113 | 10.00370 | 51 ft | 0 kts | 86° |
| 2026-04-24 13:20 | 53.63112 | 10.00355 | 48 ft | 4 kts | 86° |
| 2026-04-24 13:21 | 53.63110 | 10.00310 | 46 ft | 4 kts | 86° |
| 2026-04-24 13:21 | 53.63109 | 10.00265 | 46 ft | 4 kts | 86° |
| 2026-04-24 13:21 | 53.63107 | 10.00229 | 46 ft | 4 kts | 91° |
| 2026-04-24 13:21 | 53.63114 | 10.00195 | 44 ft | 4 kts | 159° |
| 2026-04-24 13:22 | 53.63115 | 10.00192 | 47 ft | 4 kts | 176° |
| 2026-04-24 13:22 | 53.63109 | 10.00193 | 47 ft | 0 kts | 176° |
| 2026-04-24 13:27 | 53.63106 | 10.00193 | 48 ft | 3 kts | 177° |
| 2026-04-24 13:28 | 53.63073 | 10.00187 | 51 ft | 5 kts | 196° |
| 2026-04-24 13:28 | 53.63036 | 10.00151 | 51 ft | 10 kts | 211° |
| 2026-04-24 13:28 | 53.62974 | 10.00084 | 51 ft | 11 kts | 213° |
| 2026-04-24 13:28 | 53.62918 | 9.99992 | 50 ft | 12 kts | 243° |
| 2026-04-24 13:29 | 53.62880 | 9.99856 | 50 ft | 14 kts | 246° |
| 2026-04-24 13:29 | 53.62875 | 9.99738 | 49 ft | 10 kts | 315° |
| 2026-04-24 13:29 | 53.62933 | 9.99687 | 50 ft | 12 kts | 333° |
| 2026-04-24 13:29 | 53.63201 | 9.99455 | 50 ft | 79 kts | 333° |
| 2026-04-24 13:30 | 53.63874 | 9.98874 | 49 ft | 136 kts | 333° |
| 2026-04-24 13:30 | 53.64810 | 9.98063 | 408 ft | 153 kts | 329° |
| 2026-04-24 13:30 | 53.65761 | 9.97287 | 1229 ft | 150 kts | 330° |
| 2026-04-24 13:30 | 53.66716 | 9.96582 | 1988 ft | 150 kts | 332° |
| 2026-04-24 13:31 | 53.67691 | 9.95896 | 2660 ft | 153 kts | 334° |
| 2026-04-24 13:31 | 53.68678 | 9.95190 | 3280 ft | 158 kts | 336° |
| 2026-04-24 13:31 | 53.69833 | 9.94779 | 3633 ft | 183 kts | 356° |
| 2026-04-24 13:31 | 53.71183 | 9.94721 | 4087 ft | 203 kts | 357° |
| 2026-04-24 13:32 | 53.72606 | 9.95013 | 4798 ft | 212 kts | 17° |
| 2026-04-24 13:32 | 53.73857 | 9.96366 | 5484 ft | 230 kts | 43° |
| 2026-04-24 13:32 | 53.74752 | 9.98810 | 5903 ft | 260 kts | 59° |
| 2026-04-24 13:32 | 53.75556 | 10.01621 | 6666 ft | 269 kts | 59° |
| 2026-04-24 13:33 | 53.76369 | 10.04489 | 7512 ft | 273 kts | 59° |
| 2026-04-24 13:33 | 53.77194 | 10.07409 | 8358 ft | 278 kts | 59° |
| 2026-04-24 13:33 | 53.78038 | 10.10370 | 9223 ft | 282 kts | 59° |
| 2026-04-24 13:33 | 53.78899 | 10.13378 | 10079 ft | 286 kts | 59° |
| 2026-04-24 13:34 | 53.79797 | 10.16493 | 10516 ft | 306 kts | 59° |
| 2026-04-24 13:34 | 53.80762 | 10.19828 | 10930 ft | 323 kts | 59° |
| 2026-04-24 13:34 | 53.81755 | 10.23290 | 11632 ft | 330 kts | 59° |
| 2026-04-24 13:34 | 53.82759 | 10.26807 | 12386 ft | 334 kts | 60° |
| 2026-04-24 13:35 | 53.83702 | 10.30446 | 13122 ft | 342 kts | 67° |
| 2026-04-24 13:35 | 53.84225 | 10.34431 | 13860 ft | 351 kts | 80° |
| 2026-04-24 13:35 | 53.84237 | 10.38609 | 14519 ft | 360 kts | 93° |
| 2026-04-24 13:35 | 53.83760 | 10.42808 | 15154 ft | 366 kts | 100° |
| 2026-04-24 13:36 | 53.83180 | 10.47028 | 15802 ft | 370 kts | 101° |
| 2026-04-24 13:36 | 53.82595 | 10.51300 | 16455 ft | 374 kts | 101° |
| 2026-04-24 13:36 | 53.82003 | 10.55612 | 17077 ft | 378 kts | 101° |
| 2026-04-24 13:36 | 53.81404 | 10.59966 | 17710 ft | 382 kts | 101° |
| 2026-04-24 13:37 | 53.80799 | 10.64372 | 18338 ft | 387 kts | 101° |
| 2026-04-24 13:37 | 53.80053 | 10.68774 | 18876 ft | 392 kts | 110° |
| 2026-04-24 13:37 | 53.78855 | 10.72946 | 19383 ft | 398 kts | 121° |
| 2026-04-24 13:37 | 53.77376 | 10.76930 | 19911 ft | 401 kts | 122° |
| 2026-04-24 13:38 | 53.75902 | 10.80892 | 20449 ft | 405 kts | 122° |
| 2026-04-24 13:38 | 53.74397 | 10.84940 | 20965 ft | 409 kts | 122° |
| 2026-04-24 13:38 | 53.72877 | 10.89028 | 21489 ft | 412 kts | 122° |
| 2026-04-24 13:38 | 53.71344 | 10.93154 | 21996 ft | 416 kts | 122° |
| 2026-04-24 13:39 | 53.69766 | 10.97270 | 22495 ft | 420 kts | 124° |
| 2026-04-24 13:39 | 53.68111 | 11.01350 | 22981 ft | 424 kts | 126° |
| 2026-04-24 13:39 | 53.66395 | 11.05430 | 23457 ft | 427 kts | 126° |
| 2026-04-24 13:39 | 53.64650 | 11.09523 | 23895 ft | 431 kts | 127° |
| 2026-04-24 13:40 | 53.62896 | 11.13642 | 24296 ft | 434 kts | 126° |
| 2026-04-24 13:40 | 53.61141 | 11.17798 | 24702 ft | 437 kts | 126° |
| 2026-04-24 13:40 | 53.59383 | 11.21989 | 25114 ft | 440 kts | 126° |
| 2026-04-24 13:40 | 53.57618 | 11.26210 | 25510 ft | 442 kts | 126° |
| 2026-04-24 13:41 | 53.55839 | 11.30472 | 25910 ft | 445 kts | 126° |
| 2026-04-24 13:41 | 53.54049 | 11.34756 | 26304 ft | 448 kts | 126° |
| 2026-04-24 13:41 | 53.52250 | 11.39048 | 26684 ft | 450 kts | 126° |
| 2026-04-24 13:41 | 53.50438 | 11.43361 | 27072 ft | 453 kts | 126° |
| 2026-04-24 13:42 | 53.48634 | 11.47635 | 27414 ft | 457 kts | 126° |
| 2026-04-24 13:42 | 53.46789 | 11.51995 | 27768 ft | 460 kts | 126° |
| 2026-04-24 13:42 | 53.44930 | 11.56377 | 28135 ft | 462 kts | 127° |
| 2026-04-24 13:42 | 53.43058 | 11.60779 | 28483 ft | 465 kts | 127° |
| 2026-04-24 13:43 | 53.41182 | 11.65208 | 28870 ft | 466 kts | 125° |
| 2026-04-24 13:43 | 53.39539 | 11.69914 | 29235 ft | 469 kts | 117° |
| 2026-04-24 13:43 | 53.38049 | 11.74798 | 29595 ft | 472 kts | 116° |
| 2026-04-24 13:43 | 53.36908 | 11.79963 | 29946 ft | 473 kts | 101° |
| 2026-04-24 13:44 | 53.36303 | 11.85386 | 30271 ft | 475 kts | 99° |
| 2026-04-24 13:44 | 53.35728 | 11.90844 | 30561 ft | 478 kts | 98° |
| 2026-04-24 13:44 | 53.35151 | 11.96345 | 30806 ft | 481 kts | 98° |
| 2026-04-24 13:44 | 53.34569 | 12.01869 | 31058 ft | 483 kts | 98° |
| 2026-04-24 13:45 | 53.33980 | 12.07415 | 31319 ft | 486 kts | 99° |
| 2026-04-24 13:45 | 53.33379 | 12.13016 | 31576 ft | 488 kts | 99° |
| 2026-04-24 13:45 | 53.32784 | 12.18536 | 31823 ft | 491 kts | 99° |
| 2026-04-24 13:45 | 53.32175 | 12.24166 | 32060 ft | 493 kts | 99° |
| 2026-04-24 13:46 | 53.31562 | 12.29812 | 32355 ft | 494 kts | 99° |
| 2026-04-24 13:46 | 53.30949 | 12.35457 | 32705 ft | 494 kts | 99° |
| 2026-04-24 13:46 | 53.30331 | 12.41109 | 33048 ft | 493 kts | 99° |
| 2026-04-24 13:46 | 53.29706 | 12.46758 | 33387 ft | 494 kts | 99° |
| 2026-04-24 13:47 | 53.29078 | 12.52394 | 33726 ft | 494 kts | 99° |
| 2026-04-24 13:47 | 53.28448 | 12.58034 | 34062 ft | 494 kts | 99° |
| 2026-04-24 13:47 | 53.27820 | 12.63667 | 34362 ft | 494 kts | 99° |
| 2026-04-24 13:47 | 53.27188 | 12.69318 | 34678 ft | 493 kts | 99° |
| 2026-04-24 13:48 | 53.26556 | 12.74945 | 34976 ft | 493 kts | 99° |
| 2026-04-24 13:48 | 53.25919 | 12.80568 | 35069 ft | 489 kts | 99° |
| 2026-04-24 13:48 | 53.25291 | 12.86071 | 35089 ft | 478 kts | 99° |
| 2026-04-24 13:48 | 53.24669 | 12.91495 | 35097 ft | 473 kts | 98° |
| 2026-04-24 13:49 | 53.23438 | 13.02197 | 35089 ft | 471 kts | 98° |
| 2026-04-24 13:49 | 53.22198 | 13.12950 | 35090 ft | 471 kts | 99° |
| 2026-04-24 13:50 | 53.20944 | 13.23682 | 35085 ft | 471 kts | 99° |
| 2026-04-24 13:50 | 53.19680 | 13.34409 | 35085 ft | 471 kts | 99° |
| 2026-04-24 13:51 | 53.18399 | 13.45134 | 35095 ft | 471 kts | 98° |
| 2026-04-24 13:51 | 53.17108 | 13.55851 | 35092 ft | 471 kts | 98° |
| 2026-04-24 13:52 | 53.15815 | 13.66558 | 35087 ft | 471 kts | 98° |
| 2026-04-24 13:52 | 53.14513 | 13.77278 | 35085 ft | 471 kts | 99° |
| 2026-04-24 13:53 | 53.13206 | 13.87978 | 35078 ft | 471 kts | 99° |
| 2026-04-24 13:53 | 53.11887 | 13.98669 | 35086 ft | 471 kts | 98° |
| 2026-04-24 13:54 | 53.10550 | 14.09355 | 35080 ft | 471 kts | 98° |
| 2026-04-24 13:54 | 53.09217 | 14.19958 | 35076 ft | 471 kts | 98° |
| 2026-04-24 13:55 | 53.07869 | 14.30633 | 35071 ft | 471 kts | 99° |
| 2026-04-24 13:55 | 53.06507 | 14.41303 | 35086 ft | 472 kts | 98° |
| 2026-04-24 13:56 | 53.05134 | 14.51964 | 35067 ft | 471 kts | 98° |
| 2026-04-24 13:56 | 53.03756 | 14.62612 | 35069 ft | 471 kts | 98° |
| 2026-04-24 13:57 | 53.02363 | 14.73260 | 35063 ft | 471 kts | 99° |
| 2026-04-24 13:57 | 53.00967 | 14.83893 | 35057 ft | 471 kts | 99° |
| 2026-04-24 13:58 | 52.99560 | 14.94528 | 35054 ft | 471 kts | 99° |
| 2026-04-24 13:58 | 52.98137 | 15.05148 | 35049 ft | 471 kts | 99° |
| 2026-04-24 13:59 | 52.96709 | 15.15771 | 35046 ft | 471 kts | 99° |
| 2026-04-24 13:59 | 52.95279 | 15.26381 | 35049 ft | 471 kts | 99° |
| 2026-04-24 14:00 | 52.93832 | 15.36987 | 35062 ft | 472 kts | 99° |
| 2026-04-24 14:00 | 52.92380 | 15.47512 | 35058 ft | 472 kts | 99° |
| 2026-04-24 14:01 | 52.90917 | 15.58098 | 35049 ft | 471 kts | 99° |
| 2026-04-24 14:01 | 52.89451 | 15.68683 | 35046 ft | 471 kts | 99° |
| 2026-04-24 14:02 | 52.87969 | 15.79261 | 35037 ft | 471 kts | 99° |
| 2026-04-24 14:02 | 52.86468 | 15.89830 | 35050 ft | 471 kts | 99° |
| 2026-04-24 14:03 | 52.85215 | 15.98599 | 35044 ft | 471 kts | 99° |
| 2026-04-24 14:03 | 52.83706 | 16.09156 | 35041 ft | 471 kts | 99° |
| 2026-04-24 14:04 | 52.82193 | 16.19693 | 35032 ft | 471 kts | 99° |
| 2026-04-24 14:04 | 52.80666 | 16.30210 | 35028 ft | 471 kts | 99° |
| 2026-04-24 14:05 | 52.79129 | 16.40718 | 35038 ft | 471 kts | 99° |
| 2026-04-24 14:05 | 52.77583 | 16.51239 | 35031 ft | 470 kts | 99° |
| 2026-04-24 14:06 | 52.76026 | 16.61734 | 35021 ft | 471 kts | 99° |
| 2026-04-24 14:06 | 52.74460 | 16.72232 | 35016 ft | 471 kts | 99° |
| 2026-04-24 14:07 | 52.72892 | 16.82714 | 35040 ft | 471 kts | 99° |
| 2026-04-24 14:07 | 52.71313 | 16.93189 | 35025 ft | 471 kts | 99° |
| 2026-04-24 14:08 | 52.69726 | 17.03597 | 35022 ft | 470 kts | 99° |
| 2026-04-24 14:08 | 52.68421 | 17.14132 | 35010 ft | 468 kts | 95° |
| 2026-04-24 14:09 | 52.67411 | 17.24706 | 35009 ft | 467 kts | 94° |
| 2026-04-24 14:09 | 52.66387 | 17.35283 | 35022 ft | 467 kts | 94° |
| 2026-04-24 14:10 | 52.65264 | 17.45831 | 35011 ft | 468 kts | 95° |
| 2026-04-24 14:10 | 52.64090 | 17.56364 | 34999 ft | 468 kts | 95° |
| 2026-04-24 14:11 | 52.62920 | 17.66902 | 34996 ft | 468 kts | 95° |
| 2026-04-24 14:12 | 52.61168 | 17.82708 | 35005 ft | 468 kts | 95° |
| 2026-04-24 14:12 | 52.59989 | 17.93221 | 35002 ft | 467 kts | 95° |
| 2026-04-24 14:13 | 52.58804 | 18.03724 | 34994 ft | 467 kts | 95° |
| 2026-04-24 14:13 | 52.57592 | 18.14211 | 34986 ft | 467 kts | 95° |
| 2026-04-24 14:14 | 52.56367 | 18.24706 | 34986 ft | 467 kts | 95° |
| 2026-04-24 14:14 | 52.55753 | 18.29985 | 34793 ft | 476 kts | 95° |
| 2026-04-24 14:14 | 52.54488 | 18.40766 | 33488 ft | 479 kts | 96° |
| 2026-04-24 14:15 | 52.53847 | 18.46125 | 32901 ft | 476 kts | 96° |
| 2026-04-24 14:15 | 52.53205 | 18.51449 | 32291 ft | 474 kts | 96° |
| 2026-04-24 14:15 | 52.52566 | 18.56742 | 31685 ft | 472 kts | 96° |
| 2026-04-24 14:15 | 52.51930 | 18.62018 | 31128 ft | 470 kts | 97° |
| 2026-04-24 14:16 | 52.51297 | 18.67286 | 30493 ft | 469 kts | 97° |
| 2026-04-24 14:16 | 52.50667 | 18.72528 | 29885 ft | 468 kts | 97° |
| 2026-04-24 14:16 | 52.50034 | 18.77758 | 29284 ft | 464 kts | 97° |
| 2026-04-24 14:17 | 52.48782 | 18.87993 | 28159 ft | 456 kts | 97° |
| 2026-04-24 14:17 | 52.48158 | 18.93069 | 27606 ft | 452 kts | 97° |
| 2026-04-24 14:17 | 52.46918 | 19.03091 | 26564 ft | 443 kts | 97° |
| 2026-04-24 14:18 | 52.46303 | 19.08023 | 26055 ft | 439 kts | 98° |
| 2026-04-24 14:18 | 52.45693 | 19.12908 | 25580 ft | 434 kts | 98° |
| 2026-04-24 14:18 | 52.45091 | 19.17726 | 25131 ft | 429 kts | 98° |
| 2026-04-24 14:18 | 52.44495 | 19.22491 | 24670 ft | 425 kts | 98° |
| 2026-04-24 14:19 | 52.43900 | 19.27223 | 24208 ft | 422 kts | 98° |
| 2026-04-24 14:19 | 52.43307 | 19.31914 | 23730 ft | 418 kts | 98° |
| 2026-04-24 14:19 | 52.42717 | 19.36570 | 23212 ft | 415 kts | 98° |
| 2026-04-24 14:19 | 52.42132 | 19.41175 | 22738 ft | 411 kts | 98° |
| 2026-04-24 14:20 | 52.41552 | 19.45729 | 22263 ft | 407 kts | 98° |
| 2026-04-24 14:20 | 52.40971 | 19.50247 | 21796 ft | 403 kts | 99° |
| 2026-04-24 14:20 | 52.40392 | 19.54720 | 21331 ft | 400 kts | 99° |
| 2026-04-24 14:20 | 52.39823 | 19.59101 | 20876 ft | 397 kts | 99° |
| 2026-04-24 14:21 | 52.39251 | 19.63509 | 20408 ft | 395 kts | 99° |
| 2026-04-24 14:21 | 52.38681 | 19.67888 | 19949 ft | 392 kts | 99° |
| 2026-04-24 14:21 | 52.38145 | 19.72245 | 19491 ft | 388 kts | 95° |
| 2026-04-24 14:21 | 52.38022 | 19.76617 | 19045 ft | 382 kts | 83° |
| 2026-04-24 14:22 | 52.38418 | 19.80845 | 18765 ft | 370 kts | 71° |
| 2026-04-24 14:22 | 52.39235 | 19.84760 | 18473 ft | 360 kts | 64° |
| 2026-04-24 14:22 | 52.41081 | 19.92297 | 17794 ft | 353 kts | 64° |
| 2026-04-24 14:23 | 52.41989 | 19.96014 | 17512 ft | 351 kts | 64° |
| 2026-04-24 14:23 | 52.42892 | 19.99712 | 17230 ft | 349 kts | 64° |
| 2026-04-24 14:23 | 52.43791 | 20.03394 | 16940 ft | 347 kts | 64° |
| 2026-04-24 14:23 | 52.44687 | 20.07067 | 16650 ft | 346 kts | 65° |
| 2026-04-24 14:24 | 52.45574 | 20.10714 | 16370 ft | 344 kts | 65° |
| 2026-04-24 14:24 | 52.46459 | 20.14352 | 16089 ft | 343 kts | 65° |
| 2026-04-24 14:24 | 52.47337 | 20.17978 | 15811 ft | 341 kts | 65° |
| 2026-04-24 14:24 | 52.48205 | 20.21589 | 15531 ft | 340 kts | 65° |
| 2026-04-24 14:25 | 52.49067 | 20.25188 | 15244 ft | 338 kts | 65° |
| 2026-04-24 14:25 | 52.49908 | 20.28780 | 14970 ft | 337 kts | 70° |
| 2026-04-24 14:25 | 52.50309 | 20.32548 | 14804 ft | 333 kts | 86° |
| 2026-04-24 14:25 | 52.50104 | 20.36294 | 14597 ft | 330 kts | 101° |
| 2026-04-24 14:26 | 52.49315 | 20.39818 | 14353 ft | 329 kts | 116° |
| 2026-04-24 14:26 | 52.48185 | 20.43072 | 14097 ft | 327 kts | 118° |
| 2026-04-24 14:26 | 52.47056 | 20.46302 | 13841 ft | 326 kts | 118° |
| 2026-04-24 14:26 | 52.45933 | 20.49518 | 13565 ft | 324 kts | 118° |
| 2026-04-24 14:27 | 52.44818 | 20.52713 | 13307 ft | 322 kts | 118° |
| 2026-04-24 14:27 | 52.43704 | 20.55895 | 13053 ft | 321 kts | 118° |
| 2026-04-24 14:27 | 52.42596 | 20.59052 | 12806 ft | 319 kts | 118° |
| 2026-04-24 14:27 | 52.41492 | 20.62196 | 12542 ft | 318 kts | 118° |
| 2026-04-24 14:28 | 52.40394 | 20.65327 | 12305 ft | 317 kts | 118° |
| 2026-04-24 14:28 | 52.39299 | 20.68448 | 12051 ft | 315 kts | 118° |
| 2026-04-24 14:28 | 52.38209 | 20.71552 | 11751 ft | 314 kts | 118° |
| 2026-04-24 14:28 | 52.37123 | 20.74636 | 11439 ft | 312 kts | 118° |
| 2026-04-24 14:29 | 52.36043 | 20.77709 | 11128 ft | 311 kts | 118° |
| 2026-04-24 14:29 | 52.34966 | 20.80767 | 10803 ft | 309 kts | 118° |
| 2026-04-24 14:29 | 52.33891 | 20.83807 | 10509 ft | 308 kts | 118° |
| 2026-04-24 14:29 | 52.32836 | 20.86786 | 10208 ft | 306 kts | 118° |
| 2026-04-24 14:30 | 52.32117 | 20.88813 | 9999 ft | 305 kts | 118° |
| 2026-04-24 14:30 | 52.30710 | 20.92767 | 9577 ft | 303 kts | 119° |
| 2026-04-24 14:30 | 52.29652 | 20.95733 | 9254 ft | 301 kts | 119° |
| 2026-04-24 14:30 | 52.28601 | 20.98685 | 8955 ft | 300 kts | 119° |
| 2026-04-24 14:31 | 52.27446 | 21.01510 | 8655 ft | 299 kts | 130° |
| 2026-04-24 14:31 | 52.25922 | 21.03794 | 8359 ft | 298 kts | 146° |
| 2026-04-24 14:31 | 52.24134 | 21.05461 | 8061 ft | 296 kts | 153° |
| 2026-04-24 14:31 | 52.22315 | 21.07016 | 7765 ft | 294 kts | 153° |
| 2026-04-24 14:32 | 52.20506 | 21.08573 | 7471 ft | 293 kts | 153° |
| 2026-04-24 14:32 | 52.18725 | 21.10109 | 7269 ft | 284 kts | 153° |
| 2026-04-24 14:32 | 52.17015 | 21.11584 | 7148 ft | 272 kts | 154° |
| 2026-04-24 14:32 | 52.15371 | 21.13000 | 7008 ft | 263 kts | 154° |
| 2026-04-24 14:33 | 52.13775 | 21.14381 | 6844 ft | 260 kts | 154° |
| 2026-04-24 14:33 | 52.12185 | 21.15772 | 6630 ft | 259 kts | 154° |
| 2026-04-24 14:33 | 52.10606 | 21.17161 | 6401 ft | 257 kts | 154° |
| 2026-04-24 14:33 | 52.09032 | 21.18541 | 6180 ft | 256 kts | 154° |
| 2026-04-24 14:34 | 52.07466 | 21.19911 | 5954 ft | 255 kts | 154° |
| 2026-04-24 14:34 | 52.05930 | 21.21252 | 5712 ft | 253 kts | 153° |
| 2026-04-24 14:34 | 52.04388 | 21.22599 | 5487 ft | 251 kts | 153° |
| 2026-04-24 14:34 | 52.02854 | 21.23938 | 5279 ft | 249 kts | 153° |
| 2026-04-24 14:35 | 52.01327 | 21.25267 | 5047 ft | 248 kts | 153° |
| 2026-04-24 14:35 | 51.99813 | 21.26583 | 4912 ft | 246 kts | 153° |
| 2026-04-24 14:35 | 51.98298 | 21.27892 | 4857 ft | 247 kts | 153° |
| 2026-04-24 14:35 | 51.96779 | 21.29198 | 4802 ft | 247 kts | 153° |
| 2026-04-24 14:36 | 51.95259 | 21.30503 | 4746 ft | 247 kts | 153° |
| 2026-04-24 14:36 | 51.93745 | 21.31802 | 4687 ft | 246 kts | 153° |
| 2026-04-24 14:36 | 51.92231 | 21.33100 | 4627 ft | 246 kts | 154° |
| 2026-04-24 14:36 | 51.90631 | 21.33973 | 4566 ft | 241 kts | 180° |
| 2026-04-24 14:37 | 51.89025 | 21.33457 | 4502 ft | 235 kts | 211° |
| 2026-04-24 14:37 | 51.87834 | 21.31751 | 4432 ft | 228 kts | 240° |
| 2026-04-24 14:37 | 51.87074 | 21.29503 | 4370 ft | 228 kts | 245° |
| 2026-04-24 14:37 | 51.86365 | 21.27221 | 4301 ft | 226 kts | 253° |
| 2026-04-24 14:38 | 51.86252 | 21.24753 | 4233 ft | 221 kts | 285° |
| 2026-04-24 14:38 | 51.86975 | 21.22608 | 4172 ft | 220 kts | 316° |
| 2026-04-24 14:38 | 51.88259 | 21.21273 | 4118 ft | 221 kts | 331° |
| 2026-04-24 14:38 | 51.89623 | 21.20109 | 4053 ft | 222 kts | 330° |
| 2026-04-24 14:39 | 51.90990 | 21.18937 | 4002 ft | 222 kts | 330° |
| 2026-04-24 14:39 | 51.92355 | 21.17764 | 3872 ft | 222 kts | 330° |
| 2026-04-24 14:39 | 51.93714 | 21.16591 | 3732 ft | 221 kts | 330° |
| 2026-04-24 14:39 | 51.95046 | 21.15439 | 3610 ft | 216 kts | 330° |
| 2026-04-24 14:40 | 51.96358 | 21.14307 | 3522 ft | 207 kts | 330° |
| 2026-04-24 14:40 | 51.97585 | 21.13239 | 3435 ft | 198 kts | 330° |
| 2026-04-24 14:40 | 51.98778 | 21.12196 | 3346 ft | 191 kts | 330° |
| 2026-04-24 14:40 | 51.99925 | 21.11200 | 3258 ft | 184 kts | 330° |
| 2026-04-24 14:41 | 52.01034 | 21.10238 | 3183 ft | 177 kts | 330° |
| 2026-04-24 14:41 | 52.02100 | 21.09313 | 3100 ft | 171 kts | 330° |
| 2026-04-24 14:41 | 52.03128 | 21.08421 | 3038 ft | 164 kts | 330° |
| 2026-04-24 14:41 | 52.04095 | 21.07583 | 2881 ft | 152 kts | 330° |
| 2026-04-24 14:42 | 52.04711 | 21.07047 | 2766 ft | 145 kts | 330° |
| 2026-04-24 14:42 | 52.05848 | 21.06060 | 2525 ft | 136 kts | 330° |
| 2026-04-24 14:42 | 52.06667 | 21.05348 | 2333 ft | 131 kts | 330° |
| 2026-04-24 14:42 | 52.07447 | 21.04678 | 2203 ft | 124 kts | 329° |
| 2026-04-24 14:43 | 52.08206 | 21.04041 | 2061 ft | 124 kts | 330° |
| 2026-04-24 14:43 | 52.08964 | 21.03389 | 1865 ft | 122 kts | 329° |
| 2026-04-24 14:43 | 52.09714 | 21.02733 | 1664 ft | 123 kts | 329° |
| 2026-04-24 14:43 | 52.10473 | 21.02060 | 1465 ft | 125 kts | 329° |
| 2026-04-24 14:44 | 52.11234 | 21.01378 | 1288 ft | 124 kts | 331° |
| 2026-04-24 14:44 | 52.11995 | 21.00721 | 1071 ft | 122 kts | 330° |
| 2026-04-24 14:44 | 52.12742 | 21.00067 | 890 ft | 122 kts | 330° |
| 2026-04-24 14:44 | 52.13490 | 20.99411 | 725 ft | 121 kts | 330° |
| 2026-04-24 14:45 | 52.14248 | 20.98750 | 613 ft | 125 kts | 330° |
| 2026-04-24 14:45 | 52.14748 | 20.98307 | 509 ft | 123 kts | 331° |
| 2026-04-24 14:45 | 52.15740 | 20.97439 | 356 ft | 117 kts | 330° |
| 2026-04-24 14:45 | 52.16162 | 20.97068 | 338 ft | 89 kts | 332° |
| 2026-04-24 14:46 | 52.16525 | 20.96753 | 337 ft | 36 kts | 333° |
| 2026-04-24 14:46 | 52.16631 | 20.96664 | 336 ft | 2 kts | 332° |
| 2026-04-24 14:46 | 52.16706 | 20.96598 | 338 ft | 21 kts | 332° |
| 2026-04-24 14:46 | 52.16849 | 20.96522 | 337 ft | 22 kts | 348° |
| 2026-04-24 14:47 | 52.16985 | 20.96513 | 338 ft | 16 kts | 5° |
| 2026-04-24 14:47 | 52.17065 | 20.96524 | 338 ft | 9 kts | 18° |
| 2026-04-24 14:47 | 52.17101 | 20.96593 | 336 ft | 7 kts | 62° |
| 2026-04-24 14:47 | 52.17134 | 20.96697 | 338 ft | 12 kts | 63° |
| 2026-04-24 14:48 | 52.17151 | 20.96754 | 336 ft | 1 kts | 63° |
| 2026-04-24 14:48 | 52.17192 | 20.96814 | 336 ft | 3 kts | 1° |
| 2026-04-24 14:48 | 52.17211 | 20.96795 | 335 ft | 8 kts | 330° |
| 2026-04-24 14:48 | 52.17270 | 20.96741 | 337 ft | 7 kts | 330° |
| 2026-04-24 14:49 | 52.17314 | 20.96700 | 337 ft | 5 kts | 331° |
| 2026-04-24 14:49 | 52.17348 | 20.96694 | 338 ft | 5 kts | 19° |
| 2026-04-24 14:49 | 52.17363 | 20.96734 | 339 ft | 4 kts | 64° |
| 2026-04-24 14:49 | 52.17373 | 20.96767 | 336 ft | 3 kts | 64° |
| 2026-04-24 14:50 | 52.17381 | 20.96794 | 336 ft | 2 kts | 63° |
| 2026-04-24 14:50 | 52.17382 | 20.96799 | 336 ft | 0 kts | 62° |